Latest Weather Observations for Badgerys Creek

IDN60801

Issued at 6:35 pm EDT Friday 24 October 2014 (issued every 30 minutes, with the page automatically refreshed every 10 minutes)

About weather observations | Map of weather stations | Latest weather observations for NSW | Other Formats
Station Details ID: 067108 Name: BADGERYS CREEK AWS Lat: -33.90 Lon: 150.73 Height: 81.2 m
Data from the previous 72 hours. | See also: Recent months at Badgerys Creek
Date/Time
EDT
Temp
°C
App
Temp
°C
Dew
Point
Rel
Hum
%
Delta-T
°C
Wind Press
QNH
hPa
Press
MSL
hPa
Rain
since 9 am
mm
Dir
 
Spd
km/h
Gust
km/h
Spd
kts
Gust
kts
24/06:30pm 27.3 26.6 16.3 51 6.8 NE 15 20 8 11 1011.6 1011.4 0.2
24/06:00pm 27.8 27.0 17.0 51 6.8 ENE 17 22 9 12 1011.6 1011.4 0.2
24/05:30pm 29.3 27.7 15.1 42 8.7 NNE 17 24 9 13 1011.6 1011.4 0.2
24/05:00pm 29.7 28.0 14.7 40 9.2 NE 17 22 9 12 1011.8 1011.6 0.2
24/04:30pm 29.1 26.7 14.5 41 8.9 NNE 20 32 11 17 1012.1 1011.9 0.2
24/04:00pm 29.6 27.1 14.2 39 9.3 NNE 20 35 11 19 1012.3 1012.1 0.2
24/03:30pm 29.8 27.1 14.7 39 9.2 N 22 33 12 18 1012.9 1012.8 0.2
24/03:00pm 29.2 27.0 15.0 42 8.7 NNE 20 28 11 15 1013.5 1013.4 0.2
24/02:30pm 28.7 27.1 15.9 45 7.9 NNE 19 28 10 15 1014.2 1014.1 0.2
24/02:00pm 27.6 26.0 16.6 51 6.8 NNE 20 28 11 15 1014.9 1014.8 0.2
24/01:30pm 26.5 25.1 17.0 56 5.9 NNE 20 28 11 15 1015.7 1015.6 0.2
24/01:00pm 25.4 24.4 15.7 55 5.9 NNE 15 24 8 13 1016.5 1016.4 0.2
24/12:30pm 25.2 24.7 15.8 56 5.7 NNE 13 22 7 12 1017.1 1017.0 0.2
24/12:00pm 24.5 24.5 17.2 63 4.5 NNE 13 20 7 11 1017.8 1017.6 0.2
24/11:30am 23.0 23.2 16.8 68 3.8 N 11 19 6 10 1018.6 1018.4 0.2
24/11:00am 22.1 23.1 16.8 72 3.2 NNE 7 13 4 7 1019.4 1019.2 0.0
24/10:30am 21.2 23.1 16.6 75 2.8 NE 2 6 1 3 1020.1 1019.9 0.0
24/10:00am 19.6 19.7 16.6 83 1.8 N 11 19 6 10 1020.4 1020.2 0.0
24/09:30am 19.9 20.8 16.0 78 2.3 WNW 6 11 3 6 1020.7 1020.5 0.0
24/09:00am 20.1 21.5 15.5 75 2.7 NW 2 7 1 4 1020.4 1020.2 0.0
24/08:30am 19.5 20.6 15.6 78 2.3 WNW 4 6 2 3 1020.3 1020.1 0.0
24/08:00am 18.4 19.2 15.8 85 1.5 WNW 6 7 3 4 1020.0 1019.8 0.0
24/07:30am 17.4 18.5 15.7 90 1.0 WNW 4 7 2 4 1020.2 1020.0 0.0
24/07:00am 16.6 17.3 15.5 93 0.6 W 6 9 3 5 1020.4 1020.2 0.0
24/06:30am 16.5 16.9 15.2 92 0.8 W 7 9 4 5 1020.5 1020.3 0.0
24/06:00am 16.4 16.5 15.4 94 0.6 SSW 9 19 5 10 1020.2 1020.0 0.0
24/05:30am 16.6 18.3 15.1 91 0.9 CALM 0 0 0 0 1019.5 1019.3 0.0
24/05:00am 16.7 17.6 15.1 90 0.9 SE 4 7 2 4 1019.8 1019.6 0.0
24/04:30am 17.4 17.1 15.4 88 1.2 SSE 11 19 6 10 1019.7 1019.5 0.0
24/04:00am 16.7 16.4 15.4 92 0.8 NW 11 15 6 8 1019.2 1019.0 0.0
24/03:30am 16.6 16.6 15.1 91 0.9 W 9 11 5 6 1020.4 1020.2 0.0
24/03:00am 16.6 16.3 15.5 93 0.6 W 11 19 6 10 1020.3 1020.1 0.0
24/02:30am 15.9 15.7 14.8 93 0.6 NW 9 13 5 7 1019.4 1019.2 0.0
24/02:00am 16.1 16.4 14.6 91 0.9 W 6 11 3 6 1019.5 1019.3 0.0
24/01:30am 17.5 18.4 16.0 91 0.9 SSW 6 9 3 5 1020.9 1020.7 0.0
24/01:00am 17.3 17.7 16.3 94 0.6 SSW 9 13 5 7 1021.2 1021.0 0.0
24/12:30am 16.7 17.1 15.2 91 0.9 S 7 11 4 6 1020.9 1020.7 0.0
24/12:00am 16.7 17.0 15.1 90 0.9 S 7 11 4 6 1020.8 1020.6 0.0
 
Date/Time
EDT
Temp
°C
App
Temp
°C
Dew
Point
Rel
Hum
%
Delta-T
°C
Wind Press
QNH
hPa
Press
MSL
hPa
Rain
since 9 am
mm
Dir
 
Spd
km/h
Gust
km/h
Spd
kts
Gust
kts
23/11:30pm 17.3 18.3 15.3 88 1.2 ESE 4 6 2 3 1020.6 1020.4 0.0
23/11:00pm 17.4 18.0 15.4 88 1.2 SE 6 6 3 3 1020.7 1020.5 0.0
23/10:30pm 18.1 19.1 15.4 84 1.6 SE 4 6 2 3 1020.7 1020.5 0.0
23/10:00pm 18.4 18.9 14.9 80 2.0 SE 6 6 3 3 1020.7 1020.5 0.0
23/09:30pm 18.8 19.0 14.3 75 2.6 ESE 6 7 3 4 1020.3 1020.1 0.0
23/09:00pm 18.9 19.4 15.0 78 2.3 S 6 6 3 3 1019.7 1019.5 0.0
23/08:30pm 19.8 20.1 15.9 78 2.3 ESE 9 17 5 9 1019.0 1018.8 0.0
23/08:00pm 20.7 20.0 16.3 76 2.7 E 15 20 8 11 1018.3 1018.1 0.0
23/07:30pm 20.2 21.1 16.2 78 2.4 SW 6 11 3 6 1018.4 1018.2 0.0
23/07:00pm 22.5 22.6 15.6 65 4.1 W 9 11 5 6 1018.4 1018.2 0.0
23/06:30pm 23.8 24.1 14.5 56 5.5 SE 6 9 3 5 1017.9 1017.7 0.0
23/06:00pm 24.4 25.1 14.5 54 5.9 SE 4 7 2 4 1017.1 1017.0 0.0
23/05:30pm 24.9 23.4 14.1 51 6.4 E 15 22 8 12 1016.5 1016.4 0.0
23/05:00pm 25.9 25.5 14.1 48 7.0 NE 9 13 5 7 1016.7 1016.6 0.0
23/04:30pm 25.9 23.9 11.6 40 8.2 N 13 20 7 11 1016.4 1016.3 0.0
23/04:00pm 28.4 25.0 10.6 33 10.1 E 19 24 10 13 1015.6 1015.5 0.0
23/03:30pm 29.2 26.3 13.0 37 9.6 E 20 30 11 16 1014.9 1014.8 0.0
23/03:00pm 30.5 28.0 14.2 37 9.9 E 20 28 11 15 1014.8 1014.7 0.0
23/02:30pm 31.0 30.4 14.6 37 10.0 ESE 11 20 6 11 1014.9 1014.8 0.0
23/02:00pm 30.9 30.2 13.2 34 10.6 SE 9 15 5 8 1015.4 1015.3 0.0
23/01:30pm 30.4 30.7 14.9 39 9.5 SE 7 15 4 8 1015.9 1015.8 0.0
23/01:00pm 29.5 30.4 16.0 44 8.4 E 6 13 3 7 1016.4 1016.3 0.0
23/12:30pm 28.2 29.1 16.1 47 7.5 ENE 6 9 3 5 1016.7 1016.6 0.0
23/12:00pm 27.2 28.1 16.2 51 6.8 ENE 6 11 3 6 1017.0 1016.9 0.0
23/11:30am 26.2 27.7 16.7 56 5.9 N 4 9 2 5 1017.3 1017.2 0.0
23/11:00am 24.5 25.6 15.7 58 5.3 NNE 4 7 2 4 1017.7 1017.5 0.0
23/10:30am 23.8 24.7 16.1 62 4.7 ENE 6 11 3 6 1018.0 1017.8 0.0
23/10:00am 21.9 22.9 15.3 66 3.9 NNE 4 7 2 4 1018.0 1017.8 0.0
23/09:30am 20.5 21.4 15.1 71 3.2 N 4 7 2 4 1018.2 1018.0 0.0
23/09:00am 18.7 19.4 14.6 77 2.4 NNW 4 7 2 4 1018.3 1018.1 0.0
23/08:30am 17.1 17.7 14.2 83 1.7 NW 4 7 2 4 1018.3 1018.1 0.0
23/08:00am 15.3 16.6 14.2 93 0.6 CALM 0 4 0 2 1018.4 1018.2 0.0
23/07:30am 13.6 14.0 13.6 100 0.0 SSW 4 6 2 3 1018.4 1018.2 0.0
23/07:00am 12.0 11.9 12.0 100 0.0 WSW 4 4 2 2 1018.3 1018.1 0.0
23/06:30am 10.7 10.5 10.5 99 0.1 WSW 2 6 1 3 1018.2 1018.0 0.0
23/06:00am 11.7 12.2 11.5 99 0.1 CALM 0 0 0 0 1017.8 1017.6 0.0
23/05:30am 11.3 11.7 11.1 99 0.1 CALM 0 4 0 2 1017.7 1017.5 0.0
23/05:00am 11.8 11.2 11.6 99 0.1 WSW 6 6 3 3 1017.9 1017.7 0.0
23/04:30am 12.0 11.8 11.8 99 0.1 WSW 4 4 2 2 1017.8 1017.6 0.0
23/04:00am 12.3 11.8 12.1 99 0.1 WSW 6 6 3 3 1017.8 1017.6 0.0
23/03:30am 12.5 12.5 12.3 99 0.1 WSW 4 6 2 3 1018.0 1017.8 0.0
23/03:00am 12.4 11.9 12.2 99 0.1 WSW 6 7 3 4 1018.3 1018.1 0.0
23/02:30am 12.5 12.0 12.2 98 0.2 WSW 6 6 3 3 1018.5 1018.3 0.0
23/02:00am 12.7 12.2 12.2 97 0.3 WSW 6 6 3 3 1018.8 1018.6 0.0
23/01:30am 13.1 13.2 12.6 97 0.3 WSW 4 6 2 3 1019.2 1019.0 0.0
23/01:00am 12.8 12.3 12.0 95 0.4 SSW 6 6 3 3 1019.5 1019.3 0.0
23/12:30am 12.9 12.8 12.0 94 0.5 SSW 4 6 2 3 1019.8 1019.6 0.0
23/12:00am 13.4 13.4 12.5 94 0.5 ESE 4 4 2 2 1020.1 1019.9 0.0
 
Date/Time
EDT
Temp
°C
App
Temp
°C
Dew
Point
Rel
Hum
%
Delta-T
°C
Wind Press
QNH
hPa
Press
MSL
hPa
Rain
since 9 am
mm
Dir
 
Spd
km/h
Gust
km/h
Spd
kts
Gust
kts
22/11:30pm 13.7 14.1 12.4 92 0.7 ESE 2 4 1 2 1020.2 1020.0 0.0
22/11:00pm 14.3 15.0 12.2 87 1.1 CALM 0 0 0 0 1020.3 1020.1 0.0
22/10:30pm 14.7 15.5 12.4 86 1.3 CALM 0 0 0 0 1020.5 1020.3 0.0
22/10:00pm 15.4 16.2 12.5 83 1.6 CALM 0 0 0 0 1020.5 1020.3 0.0
22/09:30pm 16.1 16.9 12.5 79 2.0 CALM 0 0 0 0 1020.4 1020.2 0.0
22/09:00pm 16.6 17.4 12.6 77 2.2 CALM 0 0 0 0 1020.4 1020.2 0.0
22/08:30pm 17.6 17.6 12.5 72 2.8 E 4 6 2 3 1020.1 1019.9 0.0
22/08:00pm 18.4 17.5 12.6 69 3.2 E 9 11 5 6 1019.9 1019.7 0.0
22/07:30pm 19.4 18.5 12.7 65 3.8 E 9 13 5 7 1019.5 1019.3 0.0
22/07:00pm 20.9 19.7 12.8 60 4.6 E 11 15 6 8 1019.3 1019.1 0.0
22/06:30pm 22.4 21.2 12.9 55 5.5 E 11 19 6 10 1019.2 1019.0 0.0
22/06:00pm 23.8 22.4 10.8 44 7.2 NNE 9 13 5 7 1019.2 1019.0 0.0
22/05:30pm 23.9 22.2 11.3 45 7.1 N 11 19 6 10 1019.3 1019.1 0.0
22/05:00pm 24.1 22.3 10.7 43 7.5 NNE 11 19 6 10 1019.5 1019.3 0.0
22/04:30pm 24.3 23.2 11.9 45 7.1 NNE 9 15 5 8 1019.7 1019.5 0.0
22/04:00pm 24.1 22.6 11.8 46 7.0 NE 11 20 6 11 1020.1 1019.9 0.0
22/03:30pm 23.8 22.2 11.5 46 6.9 NNE 11 20 6 11 1020.6 1020.4 0.0
22/03:00pm 23.2 21.4 10.9 46 6.8 N 11 20 6 11 1021.2 1021.0 0.0
22/02:30pm 22.5 19.4 10.3 46 6.7 NE 17 22 9 12 1021.7 1021.5 0.0
22/02:00pm 22.2 19.1 10.4 47 6.5 NE 17 24 9 13 1022.3 1022.1 0.0
22/01:30pm 21.8 19.1 10.3 48 6.3 NE 15 24 8 13 1023.0 1022.9 0.0
22/01:00pm 21.4 18.3 10.3 49 6.0 NE 17 24 9 13 1023.6 1023.5 0.0
22/12:30pm 20.6 17.4 9.8 50 5.8 NNE 17 26 9 14 1024.2 1024.1 0.0
22/12:00pm 19.9 16.5 9.2 50 5.6 NNE 17 30 9 16 1025.0 1024.9 0.0
22/11:30am 19.8 15.7 10.0 53 5.3 NNE 22 32 12 17 1025.6 1025.5 0.0
22/11:00am 18.8 14.5 9.3 54 5.0 NNE 22 30 12 16 1026.0 1025.9 0.0
22/10:30am 18.9 14.6 9.4 54 5.0 N 22 32 12 17 1026.3 1026.2 0.0
22/10:00am 18.3 14.1 8.3 52 5.1 N 20 26 11 14 1026.7 1026.6 0.0
22/09:30am 17.5 14.3 8.6 56 4.6 N 15 20 8 11 1026.9 1026.8 0.0
22/09:00am 17.2 14.4 8.6 57 4.4 NNW 13 19 7 10 1026.9 1026.8 0.0
22/08:30am 16.3 14.5 9.5 64 3.5 N 9 15 5 8 1027.3 1027.2 0.0
22/08:00am 15.2 14.2 10.2 72 2.6 N 6 9 3 5 1027.4 1027.3 0.0
22/07:30am 14.1 14.3 10.7 80 1.8 CALM 0 2 0 1 1027.3 1027.2 0.0
22/07:00am 13.0 13.4 11.1 88 1.0 CALM 0 0 0 0 1027.4 1027.3 0.0
22/06:30am 13.1 13.4 10.8 86 1.2 CALM 0 2 0 1 1027.4 1027.3 0.0
22/06:00am 13.1 13.4 10.8 86 1.2 CALM 0 2 0 1 1027.3 1027.2 0.0
22/05:30am 13.3 12.8 10.8 85 1.3 NE 4 6 2 3 1027.2 1027.1 0.0
22/05:00am 13.2 12.7 10.9 86 1.2 NNE 4 6 2 3 1027.2 1027.1 0.0
22/04:30am 13.3 12.5 11.0 86 1.2 NNE 6 6 3 3 1027.5 1027.4 0.0
22/04:00am 13.4 13.8 11.3 87 1.1 CALM 0 0 0 0 1027.6 1027.5 0.0
22/03:30am 13.3 13.7 11.4 88 1.0 CALM 0 0 0 0 1028.1 1028.0 0.0
22/03:00am 13.4 13.7 10.9 85 1.3 CALM 0 0 0 0 1028.3 1028.2 0.0
22/02:30am 13.4 13.7 10.8 84 1.4 CALM 0 2 0 1 1028.7 1028.6 0.0
22/02:00am 13.5 13.1 11.0 85 1.3 NE 4 6 2 3 1029.0 1028.9 0.0
22/01:30am 13.8 14.2 11.1 84 1.4 CALM 0 2 0 1 1029.4 1029.3 0.0
22/01:00am 13.7 13.2 10.9 83 1.5 NNE 4 7 2 4 1030.0 1029.9 0.0
22/12:30am 14.0 14.3 10.8 81 1.7 CALM 0 0 0 0 1030.6 1030.4 0.0
22/12:00am 14.1 14.5 11.4 84 1.4 CALM 0 0 0 0 1030.9 1030.7 0.0
 
Date/Time
EDT
Temp
°C
App
Temp
°C
Dew
Point
Rel
Hum
%
Delta-T
°C
Wind Press
QNH
hPa
Press
MSL
hPa
Rain
since 9 am
mm
Dir
 
Spd
km/h
Gust
km/h
Spd
kts
Gust
kts
21/11:30pm 14.4 14.5 10.0 75 2.3 CALM 0 0 0 0 1031.1 1030.9 0.0
21/11:00pm 14.4 14.5 10.0 75 2.3 CALM 0 0 0 0 1031.2 1031.0 0.0
21/10:30pm 14.6 14.3 10.2 75 2.3 NNE 2 4 1 2 1031.4 1031.2 0.0
21/10:00pm 14.7 14.0 10.1 74 2.4 NNE 4 7 2 4 1031.3 1031.1 0.0
21/09:30pm 14.9 13.3 10.1 73 2.5 NE 9 13 5 7 1031.3 1031.1 0.0
21/09:00pm 15.2 13.1 9.8 70 2.8 ENE 11 15 6 8 1031.1 1030.9 0.0
21/08:30pm 15.4 13.9 9.3 67 3.2 NE 7 11 4 6 1031.0 1030.8 0.0
21/08:00pm 15.4 13.6 9.3 67 3.1 NE 9 13 5 7 1030.6 1030.4 0.0
21/07:30pm 15.6 13.8 9.3 66 3.3 ENE 9 13 5 7 1030.3 1030.1 0.0
21/07:00pm 15.9 13.7 9.3 65 3.4 ENE 11 17 6 9 1030.3 1030.1 0.0

Other Formats:

Comma delimited format used in spreadsheet applications
http://www.bom.gov.au/fwo/IDN60801/IDN60801.94752.axf

JavaScript Object Notation format (JSON) in row-major order
http://www.bom.gov.au/fwo/IDN60801/IDN60801.94752.json